sensor_id;sensor_type;location;lat;lon;timestamp;P1;durP1;ratioP1;P2;durP2;ratioP2
30000;SDS011;16845;48.670;9.000;2023-04-06T00:02:05;17.67;;;12.73;;
30000;SDS011;16845;48.670;9.000;2023-04-06T00:04:33;18.75;;;12.27;;
30000;SDS011;16845;48.670;9.000;2023-04-06T00:07:01;17.63;;;12.23;;
30000;SDS011;16845;48.670;9.000;2023-04-06T00:09:29;20.67;;;11.77;;
30000;SDS011;16845;48.670;9.000;2023-04-06T00:11:59;21.15;;;13.10;;
30000;SDS011;16845;48.670;9.000;2023-04-06T00:14:27;21.83;;;12.10;;
30000;SDS011;16845;48.670;9.000;2023-04-06T00:16:55;22.90;;;13.80;;
30000;SDS011;16845;48.670;9.000;2023-04-06T00:19:23;22.35;;;12.75;;
30000;SDS011;16845;48.670;9.000;2023-04-06T00:21:51;18.45;;;12.68;;
30000;SDS011;16845;48.670;9.000;2023-04-06T00:24:19;16.65;;;12.30;;
30000;SDS011;16845;48.670;9.000;2023-04-06T00:26:47;21.73;;;12.30;;
30000;SDS011;16845;48.670;9.000;2023-04-06T00:29:16;20.73;;;13.48;;
30000;SDS011;16845;48.670;9.000;2023-04-06T00:31:44;18.60;;;13.20;;
30000;SDS011;16845;48.670;9.000;2023-04-06T00:34:12;17.00;;;11.40;;
30000;SDS011;16845;48.670;9.000;2023-04-06T00:36:41;21.60;;;12.45;;
30000;SDS011;16845;48.670;9.000;2023-04-06T00:39:09;16.10;;;11.40;;
30000;SDS011;16845;48.670;9.000;2023-04-06T00:41:37;23.27;;;13.32;;
30000;SDS011;16845;48.670;9.000;2023-04-06T00:44:08;17.23;;;11.05;;
30000;SDS011;16845;48.670;9.000;2023-04-06T00:46:37;24.75;;;13.10;;
30000;SDS011;16845;48.670;9.000;2023-04-06T00:49:05;20.30;;;12.73;;
30000;SDS011;16845;48.670;9.000;2023-04-06T00:51:34;27.73;;;13.20;;
30000;SDS011;16845;48.670;9.000;2023-04-06T00:54:02;17.52;;;12.18;;
30000;SDS011;16845;48.670;9.000;2023-04-06T00:56:30;16.23;;;12.20;;
30000;SDS011;16845;48.670;9.000;2023-04-06T00:58:58;15.70;;;11.57;;
30000;SDS011;16845;48.670;9.000;2023-04-06T01:01:27;16.38;;;11.05;;
30000;SDS011;16845;48.670;9.000;2023-04-06T01:04:00;19.13;;;12.95;;
30000;SDS011;16845;48.670;9.000;2023-04-06T01:06:29;20.73;;;12.35;;
30000;SDS011;16845;48.670;9.000;2023-04-06T01:08:56;26.38;;;14.13;;
30000;SDS011;16845;48.670;9.000;2023-04-06T01:11:25;22.52;;;11.88;;
30000;SDS011;16845;48.670;9.000;2023-04-06T01:13:53;16.58;;;12.20;;
30000;SDS011;16845;48.670;9.000;2023-04-06T01:16:21;24.85;;;12.85;;
30000;SDS011;16845;48.670;9.000;2023-04-06T01:18:49;18.33;;;11.55;;
30000;SDS011;16845;48.670;9.000;2023-04-06T01:21:19;14.95;;;10.85;;
30000;SDS011;16845;48.670;9.000;2023-04-06T01:23:49;18.95;;;12.32;;
30000;SDS011;16845;48.670;9.000;2023-04-06T01:26:17;16.50;;;11.23;;
30000;SDS011;16845;48.670;9.000;2023-04-06T01:28:45;25.92;;;14.00;;
30000;SDS011;16845;48.670;9.000;2023-04-06T01:31:13;16.23;;;12.35;;
30000;SDS011;16845;48.670;9.000;2023-04-06T01:33:41;22.88;;;12.00;;
30000;SDS011;16845;48.670;9.000;2023-04-06T01:36:08;17.30;;;12.48;;
30000;SDS011;16845;48.670;9.000;2023-04-06T01:38:37;17.15;;;11.75;;
30000;SDS011;16845;48.670;9.000;2023-04-06T01:41:06;21.02;;;12.30;;
30000;SDS011;16845;48.670;9.000;2023-04-06T01:43:35;18.45;;;12.55;;
30000;SDS011;16845;48.670;9.000;2023-04-06T01:46:03;17.08;;;13.00;;
30000;SDS011;16845;48.670;9.000;2023-04-06T01:48:31;17.17;;;12.75;;
30000;SDS011;16845;48.670;9.000;2023-04-06T01:50:59;23.48;;;13.13;;
30000;SDS011;16845;48.670;9.000;2023-04-06T01:53:27;23.98;;;12.60;;
30000;SDS011;16845;48.670;9.000;2023-04-06T01:55:55;17.02;;;13.02;;
30000;SDS011;16845;48.670;9.000;2023-04-06T01:58:24;24.45;;;12.52;;
30000;SDS011;16845;48.670;9.000;2023-04-06T02:00:52;18.17;;;12.65;;
30000;SDS011;16845;48.670;9.000;2023-04-06T02:03:21;17.23;;;12.27;;
30000;SDS011;16845;48.670;9.000;2023-04-06T02:05:52;19.13;;;10.93;;
30000;SDS011;16845;48.670;9.000;2023-04-06T02:08:20;19.98;;;13.40;;
30000;SDS011;16845;48.670;9.000;2023-04-06T02:10:48;18.10;;;11.85;;
30000;SDS011;16845;48.670;9.000;2023-04-06T02:13:16;21.27;;;13.55;;
30000;SDS011;16845;48.670;9.000;2023-04-06T02:15:45;17.67;;;11.73;;
30000;SDS011;16845;48.670;9.000;2023-04-06T02:18:13;17.42;;;11.27;;
30000;SDS011;16845;48.670;9.000;2023-04-06T02:20:41;18.42;;;12.02;;
30000;SDS011;16845;48.670;9.000;2023-04-06T02:23:09;18.75;;;12.52;;
30000;SDS011;16845;48.670;9.000;2023-04-06T02:25:37;17.75;;;12.73;;
30000;SDS011;16845;48.670;9.000;2023-04-06T02:28:05;17.98;;;11.52;;
30000;SDS011;16845;48.670;9.000;2023-04-06T02:30:33;25.73;;;14.02;;
30000;SDS011;16845;48.670;9.000;2023-04-06T02:33:02;20.13;;;12.90;;
30000;SDS011;16845;48.670;9.000;2023-04-06T02:35:31;20.65;;;13.57;;
30000;SDS011;16845;48.670;9.000;2023-04-06T02:37:59;21.45;;;13.82;;
30000;SDS011;16845;48.670;9.000;2023-04-06T02:40:27;25.15;;;12.88;;
30000;SDS011;16845;48.670;9.000;2023-04-06T02:42:55;22.88;;;12.82;;
30000;SDS011;16845;48.670;9.000;2023-04-06T02:45:23;18.60;;;12.63;;
30000;SDS011;16845;48.670;9.000;2023-04-06T02:47:51;22.52;;;13.00;;
30000;SDS011;16845;48.670;9.000;2023-04-06T02:50:20;21.60;;;12.40;;
30000;SDS011;16845;48.670;9.000;2023-04-06T02:52:48;22.67;;;13.80;;
30000;SDS011;16845;48.670;9.000;2023-04-06T02:55:16;19.83;;;13.25;;
30000;SDS011;16845;48.670;9.000;2023-04-06T02:57:47;22.85;;;13.27;;
30000;SDS011;16845;48.670;9.000;2023-04-06T03:00:15;21.50;;;12.73;;
30000;SDS011;16845;48.670;9.000;2023-04-06T03:02:43;22.80;;;12.43;;
30000;SDS011;16845;48.670;9.000;2023-04-06T03:05:11;28.15;;;13.93;;
30000;SDS011;16845;48.670;9.000;2023-04-06T03:07:40;17.98;;;11.93;;
30000;SDS011;16845;48.670;9.000;2023-04-06T03:10:08;21.73;;;12.98;;
30000;SDS011;16845;48.670;9.000;2023-04-06T03:12:36;19.58;;;13.43;;
30000;SDS011;16845;48.670;9.000;2023-04-06T03:15:04;20.73;;;13.23;;
30000;SDS011;16845;48.670;9.000;2023-04-06T03:17:33;20.42;;;12.68;;
30000;SDS011;16845;48.670;9.000;2023-04-06T03:20:01;23.30;;;12.85;;
30000;SDS011;16845;48.670;9.000;2023-04-06T03:22:29;19.70;;;13.52;;
30000;SDS011;16845;48.670;9.000;2023-04-06T03:24:58;20.92;;;12.88;;
30000;SDS011;16845;48.670;9.000;2023-04-06T03:27:29;19.92;;;11.30;;
30000;SDS011;16845;48.670;9.000;2023-04-06T03:29:57;26.83;;;13.75;;
30000;SDS011;16845;48.670;9.000;2023-04-06T03:32:24;22.40;;;13.77;;
30000;SDS011;16845;48.670;9.000;2023-04-06T03:34:52;24.45;;;13.82;;
30000;SDS011;16845;48.670;9.000;2023-04-06T03:37:20;19.45;;;13.00;;
30000;SDS011;16845;48.670;9.000;2023-04-06T03:39:48;20.00;;;13.13;;
30000;SDS011;16845;48.670;9.000;2023-04-06T03:42:18;25.52;;;13.88;;
30000;SDS011;16845;48.670;9.000;2023-04-06T03:44:46;24.10;;;13.95;;
30000;SDS011;16845;48.670;9.000;2023-04-06T03:47:13;19.08;;;13.63;;
30000;SDS011;16845;48.670;9.000;2023-04-06T03:49:42;22.58;;;14.55;;
30000;SDS011;16845;48.670;9.000;2023-04-06T03:52:09;22.75;;;14.68;;
30000;SDS011;16845;48.670;9.000;2023-04-06T03:54:37;23.70;;;13.98;;
30000;SDS011;16845;48.670;9.000;2023-04-06T03:57:05;24.70;;;15.15;;
30000;SDS011;16845;48.670;9.000;2023-04-06T03:59:35;19.83;;;13.75;;
30000;SDS011;16845;48.670;9.000;2023-04-06T04:02:03;23.85;;;15.63;;
30000;SDS011;16845;48.670;9.000;2023-04-06T04:04:31;25.33;;;14.45;;
30000;SDS011;16845;48.670;9.000;2023-04-06T04:06:58;24.58;;;15.25;;
30000;SDS011;16845;48.670;9.000;2023-04-06T04:09:26;22.30;;;15.13;;
30000;SDS011;16845;48.670;9.000;2023-04-06T04:11:55;25.05;;;16.10;;
30000;SDS011;16845;48.670;9.000;2023-04-06T04:14:23;24.77;;;15.55;;
30000;SDS011;16845;48.670;9.000;2023-04-06T04:16:55;27.60;;;15.15;;
30000;SDS011;16845;48.670;9.000;2023-04-06T04:19:23;22.77;;;15.02;;
30000;SDS011;16845;48.670;9.000;2023-04-06T04:21:51;24.38;;;14.63;;
30000;SDS011;16845;48.670;9.000;2023-04-06T04:24:19;24.13;;;15.60;;
30000;SDS011;16845;48.670;9.000;2023-04-06T04:26:47;42.15;;;16.27;;
30000;SDS011;16845;48.670;9.000;2023-04-06T04:29:15;23.30;;;14.55;;
30000;SDS011;16845;48.670;9.000;2023-04-06T04:31:42;22.45;;;14.65;;
30000;SDS011;16845;48.670;9.000;2023-04-06T04:34:12;23.25;;;15.02;;
30000;SDS011;16845;48.670;9.000;2023-04-06T04:36:40;29.17;;;16.77;;
30000;SDS011;16845;48.670;9.000;2023-04-06T04:39:08;36.25;;;17.83;;
30000;SDS011;16845;48.670;9.000;2023-04-06T04:41:38;25.08;;;14.55;;
30000;SDS011;16845;48.670;9.000;2023-04-06T04:44:06;25.98;;;14.73;;
30000;SDS011;16845;48.670;9.000;2023-04-06T04:46:34;21.00;;;13.88;;
30000;SDS011;16845;48.670;9.000;2023-04-06T04:49:02;28.25;;;15.45;;
30000;SDS011;16845;48.670;9.000;2023-04-06T04:51:34;22.15;;;14.85;;
30000;SDS011;16845;48.670;9.000;2023-04-06T04:54:02;26.98;;;15.10;;
30000;SDS011;16845;48.670;9.000;2023-04-06T04:56:30;22.55;;;15.57;;
30000;SDS011;16845;48.670;9.000;2023-04-06T04:58:58;24.50;;;14.82;;
30000;SDS011;16845;48.670;9.000;2023-04-06T05:01:26;29.45;;;15.90;;
30000;SDS011;16845;48.670;9.000;2023-04-06T05:03:57;29.45;;;16.40;;
30000;SDS011;16845;48.670;9.000;2023-04-06T05:06:25;28.02;;;15.95;;
30000;SDS011;16845;48.670;9.000;2023-04-06T05:08:55;24.25;;;14.80;;
30000;SDS011;16845;48.670;9.000;2023-04-06T05:11:22;22.05;;;14.27;;
30000;SDS011;16845;48.670;9.000;2023-04-06T05:13:51;26.35;;;14.93;;
30000;SDS011;16845;48.670;9.000;2023-04-06T05:16:19;24.08;;;14.20;;
30000;SDS011;16845;48.670;9.000;2023-04-06T05:18:47;23.92;;;14.75;;
30000;SDS011;16845;48.670;9.000;2023-04-06T05:21:15;25.30;;;15.52;;
30000;SDS011;16845;48.670;9.000;2023-04-06T05:23:43;22.42;;;14.52;;
30000;SDS011;16845;48.670;9.000;2023-04-06T05:26:12;28.10;;;15.25;;
30000;SDS011;16845;48.670;9.000;2023-04-06T05:28:40;28.50;;;16.45;;
30000;SDS011;16845;48.670;9.000;2023-04-06T05:31:10;21.20;;;13.93;;
30000;SDS011;16845;48.670;9.000;2023-04-06T05:33:38;23.25;;;16.08;;
30000;SDS011;16845;48.670;9.000;2023-04-06T05:36:07;22.83;;;15.02;;
30000;SDS011;16845;48.670;9.000;2023-04-06T05:38:35;24.63;;;15.00;;
30000;SDS011;16845;48.670;9.000;2023-04-06T05:41:03;22.23;;;15.27;;
30000;SDS011;16845;48.670;9.000;2023-04-06T05:43:32;21.40;;;15.18;;
30000;SDS011;16845;48.670;9.000;2023-04-06T05:46:00;23.40;;;14.80;;
30000;SDS011;16845;48.670;9.000;2023-04-06T05:48:28;27.50;;;14.48;;
30000;SDS011;16845;48.670;9.000;2023-04-06T05:50:56;20.25;;;13.13;;
30000;SDS011;16845;48.670;9.000;2023-04-06T05:53:24;22.75;;;15.68;;
30000;SDS011;16845;48.670;9.000;2023-04-06T05:55:52;24.13;;;15.15;;
30000;SDS011;16845;48.670;9.000;2023-04-06T05:58:20;21.58;;;14.15;;
30000;SDS011;16845;48.670;9.000;2023-04-06T06:00:49;20.23;;;12.75;;
30000;SDS011;16845;48.670;9.000;2023-04-06T06:03:20;20.63;;;13.77;;
30000;SDS011;16845;48.670;9.000;2023-04-06T06:05:48;18.73;;;12.68;;
30000;SDS011;16845;48.670;9.000;2023-04-06T06:08:16;27.50;;;12.48;;
30000;SDS011;16845;48.670;9.000;2023-04-06T06:10:44;20.42;;;12.68;;
30000;SDS011;16845;48.670;9.000;2023-04-06T06:13:12;20.58;;;12.82;;
30000;SDS011;16845;48.670;9.000;2023-04-06T06:15:40;20.13;;;12.18;;
30000;SDS011;16845;48.670;9.000;2023-04-06T06:18:09;23.50;;;13.82;;
30000;SDS011;16845;48.670;9.000;2023-04-06T06:20:37;19.60;;;12.38;;
30000;SDS011;16845;48.670;9.000;2023-04-06T06:23:05;17.90;;;11.00;;
30000;SDS011;16845;48.670;9.000;2023-04-06T06:25:33;21.17;;;13.10;;
30000;SDS011;16845;48.670;9.000;2023-04-06T06:28:01;24.45;;;11.80;;
30000;SDS011;16845;48.670;9.000;2023-04-06T06:30:29;18.63;;;11.27;;
30000;SDS011;16845;48.670;9.000;2023-04-06T06:32:57;15.80;;;11.35;;
30000;SDS011;16845;48.670;9.000;2023-04-06T06:35:26;17.15;;;11.15;;
30000;SDS011;16845;48.670;9.000;2023-04-06T06:37:54;16.90;;;11.15;;
30000;SDS011;16845;48.670;9.000;2023-04-06T06:40:22;17.02;;;11.07;;
30000;SDS011;16845;48.670;9.000;2023-04-06T06:42:52;15.50;;;10.43;;
30000;SDS011;16845;48.670;9.000;2023-04-06T06:45:20;19.30;;;11.23;;
30000;SDS011;16845;48.670;9.000;2023-04-06T06:47:48;14.68;;;11.02;;
30000;SDS011;16845;48.670;9.000;2023-04-06T06:50:19;16.40;;;9.88;;
30000;SDS011;16845;48.670;9.000;2023-04-06T06:52:48;19.65;;;10.68;;
30000;SDS011;16845;48.670;9.000;2023-04-06T06:55:16;13.50;;;9.80;;
30000;SDS011;16845;48.670;9.000;2023-04-06T06:57:45;16.33;;;10.38;;
30000;SDS011;16845;48.670;9.000;2023-04-06T07:00:13;15.43;;;10.15;;
30000;SDS011;16845;48.670;9.000;2023-04-06T07:02:42;20.92;;;11.65;;
30000;SDS011;16845;48.670;9.000;2023-04-06T07:05:10;14.30;;;9.90;;
30000;SDS011;16845;48.670;9.000;2023-04-06T07:07:53;12.45;;;9.00;;
30000;SDS011;16845;48.670;9.000;2023-04-06T07:10:22;13.30;;;8.85;;
30000;SDS011;16845;48.670;9.000;2023-04-06T07:12:50;14.63;;;9.95;;
30000;SDS011;16845;48.670;9.000;2023-04-06T07:15:17;14.30;;;9.30;;
30000;SDS011;16845;48.670;9.000;2023-04-06T07:17:45;14.63;;;9.48;;
30000;SDS011;16845;48.670;9.000;2023-04-06T07:20:14;15.90;;;9.82;;
30000;SDS011;16845;48.670;9.000;2023-04-06T07:22:42;12.23;;;9.40;;
30000;SDS011;16845;48.670;9.000;2023-04-06T07:25:12;15.73;;;8.93;;
30000;SDS011;16845;48.670;9.000;2023-04-06T07:27:40;12.93;;;9.35;;
30000;SDS011;16845;48.670;9.000;2023-04-06T07:30:08;18.50;;;9.48;;
30000;SDS011;16845;48.670;9.000;2023-04-06T07:32:37;15.75;;;10.05;;
30000;SDS011;16845;48.670;9.000;2023-04-06T07:35:05;19.40;;;8.85;;
30000;SDS011;16845;48.670;9.000;2023-04-06T07:37:33;15.98;;;9.23;;
30000;SDS011;16845;48.670;9.000;2023-04-06T07:40:01;15.65;;;8.48;;
30000;SDS011;16845;48.670;9.000;2023-04-06T07:42:30;13.20;;;8.52;;
30000;SDS011;16845;48.670;9.000;2023-04-06T07:44:59;12.68;;;9.55;;
30000;SDS011;16845;48.670;9.000;2023-04-06T07:47:27;16.33;;;9.80;;
30000;SDS011;16845;48.670;9.000;2023-04-06T07:49:55;10.20;;;8.60;;
30000;SDS011;16845;48.670;9.000;2023-04-06T07:52:23;10.30;;;8.48;;
30000;SDS011;16845;48.670;9.000;2023-04-06T07:54:51;13.82;;;9.13;;
30000;SDS011;16845;48.670;9.000;2023-04-06T07:57:19;12.07;;;7.88;;
30000;SDS011;16845;48.670;9.000;2023-04-06T07:59:48;15.05;;;9.27;;
30000;SDS011;16845;48.670;9.000;2023-04-06T08:02:16;12.35;;;8.40;;
30000;SDS011;16845;48.670;9.000;2023-04-06T08:04:44;12.23;;;8.18;;
30000;SDS011;16845;48.670;9.000;2023-04-06T08:07:13;16.75;;;8.73;;
30000;SDS011;16845;48.670;9.000;2023-04-06T08:09:40;12.45;;;8.63;;
30000;SDS011;16845;48.670;9.000;2023-04-06T08:12:08;14.45;;;10.50;;
30000;SDS011;16845;48.670;9.000;2023-04-06T08:14:36;12.35;;;8.70;;
30000;SDS011;16845;48.670;9.000;2023-04-06T08:17:06;15.73;;;9.23;;
30000;SDS011;16845;48.670;9.000;2023-04-06T08:19:33;14.00;;;9.55;;
30000;SDS011;16845;48.670;9.000;2023-04-06T08:22:01;12.15;;;8.52;;
30000;SDS011;16845;48.670;9.000;2023-04-06T08:24:29;13.45;;;9.40;;
30000;SDS011;16845;48.670;9.000;2023-04-06T08:26:58;13.48;;;9.75;;
30000;SDS011;16845;48.670;9.000;2023-04-06T08:29:26;15.05;;;9.32;;
30000;SDS011;16845;48.670;9.000;2023-04-06T08:31:54;12.07;;;8.98;;
30000;SDS011;16845;48.670;9.000;2023-04-06T08:34:23;12.30;;;9.15;;
30000;SDS011;16845;48.670;9.000;2023-04-06T08:36:51;9.90;;;8.50;;
30000;SDS011;16845;48.670;9.000;2023-04-06T08:39:19;12.73;;;9.32;;
30000;SDS011;16845;48.670;9.000;2023-04-06T08:41:51;13.63;;;9.93;;
30000;SDS011;16845;48.670;9.000;2023-04-06T08:44:23;15.20;;;10.27;;
30000;SDS011;16845;48.670;9.000;2023-04-06T08:46:51;13.52;;;8.30;;
30000;SDS011;16845;48.670;9.000;2023-04-06T08:49:20;11.93;;;8.70;;
30000;SDS011;16845;48.670;9.000;2023-04-06T08:51:49;13.70;;;9.38;;
30000;SDS011;16845;48.670;9.000;2023-04-06T08:54:18;11.75;;;8.73;;
30000;SDS011;16845;48.670;9.000;2023-04-06T08:56:46;11.80;;;8.73;;
30000;SDS011;16845;48.670;9.000;2023-04-06T08:59:15;15.85;;;9.52;;
30000;SDS011;16845;48.670;9.000;2023-04-06T09:01:43;10.77;;;8.63;;
30000;SDS011;16845;48.670;9.000;2023-04-06T09:04:13;9.80;;;7.97;;
30000;SDS011;16845;48.670;9.000;2023-04-06T09:06:42;12.63;;;9.45;;
30000;SDS011;16845;48.670;9.000;2023-04-06T09:09:12;11.55;;;9.20;;
30000;SDS011;16845;48.670;9.000;2023-04-06T09:11:44;9.68;;;8.00;;
30000;SDS011;16845;48.670;9.000;2023-04-06T09:14:13;11.18;;;7.90;;
30000;SDS011;16845;48.670;9.000;2023-04-06T09:16:42;9.32;;;7.68;;
30000;SDS011;16845;48.670;9.000;2023-04-06T09:19:11;9.18;;;7.38;;
30000;SDS011;16845;48.670;9.000;2023-04-06T09:21:40;10.43;;;7.88;;
30000;SDS011;16845;48.670;9.000;2023-04-06T09:24:08;8.55;;;7.05;;
30000;SDS011;16845;48.670;9.000;2023-04-06T09:26:47;10.13;;;6.53;;
30000;SDS011;16845;48.670;9.000;2023-04-06T09:29:24;6.78;;;5.30;;
30000;SDS011;16845;48.670;9.000;2023-04-06T09:32:01;8.00;;;6.43;;
30000;SDS011;16845;48.670;9.000;2023-04-06T09:34:30;8.52;;;6.38;;
30000;SDS011;16845;48.670;9.000;2023-04-06T09:36:59;7.38;;;6.18;;
30000;SDS011;16845;48.670;9.000;2023-04-06T09:39:27;7.25;;;5.50;;
30000;SDS011;16845;48.670;9.000;2023-04-06T09:41:57;5.95;;;5.35;;
30000;SDS011;16845;48.670;9.000;2023-04-06T09:44:25;9.32;;;6.40;;
30000;SDS011;16845;48.670;9.000;2023-04-06T09:46:53;8.02;;;5.65;;
30000;SDS011;16845;48.670;9.000;2023-04-06T09:49:27;7.00;;;6.20;;
30000;SDS011;16845;48.670;9.000;2023-04-06T09:51:59;8.68;;;6.20;;
30000;SDS011;16845;48.670;9.000;2023-04-06T09:54:29;7.10;;;6.40;;
30000;SDS011;16845;48.670;9.000;2023-04-06T09:57:01;8.15;;;5.78;;
30000;SDS011;16845;48.670;9.000;2023-04-06T09:59:40;8.70;;;6.90;;
30000;SDS011;16845;48.670;9.000;2023-04-06T10:02:15;9.63;;;6.75;;
30000;SDS011;16845;48.670;9.000;2023-04-06T10:04:49;6.90;;;6.20;;
30000;SDS011;16845;48.670;9.000;2023-04-06T10:07:23;8.73;;;6.00;;
30000;SDS011;16845;48.670;9.000;2023-04-06T10:09:53;7.05;;;4.97;;
30000;SDS011;16845;48.670;9.000;2023-04-06T10:12:24;9.27;;;5.65;;
30000;SDS011;16845;48.670;9.000;2023-04-06T10:14:52;8.57;;;5.50;;
30000;SDS011;16845;48.670;9.000;2023-04-06T10:17:21;9.52;;;5.45;;
30000;SDS011;16845;48.670;9.000;2023-04-06T10:19:52;7.40;;;5.93;;
30000;SDS011;16845;48.670;9.000;2023-04-06T10:22:28;7.65;;;6.05;;
30000;SDS011;16845;48.670;9.000;2023-04-06T10:25:03;8.10;;;5.63;;
30000;SDS011;16845;48.670;9.000;2023-04-06T10:27:32;10.30;;;5.05;;
30000;SDS011;16845;48.670;9.000;2023-04-06T10:30:01;6.65;;;6.00;;
30000;SDS011;16845;48.670;9.000;2023-04-06T10:32:33;8.65;;;5.90;;
30000;SDS011;16845;48.670;9.000;2023-04-06T10:35:06;13.15;;;5.15;;
30000;SDS011;16845;48.670;9.000;2023-04-06T10:37:48;8.30;;;5.07;;
30000;SDS011;16845;48.670;9.000;2023-04-06T10:40:18;7.90;;;5.43;;
30000;SDS011;16845;48.670;9.000;2023-04-06T10:42:53;5.82;;;5.20;;
30000;SDS011;16845;48.670;9.000;2023-04-06T10:45:23;6.07;;;5.28;;
30000;SDS011;16845;48.670;9.000;2023-04-06T10:47:52;5.28;;;4.78;;
30000;SDS011;16845;48.670;9.000;2023-04-06T10:50:21;6.40;;;5.18;;
30000;SDS011;16845;48.670;9.000;2023-04-06T10:52:58;8.65;;;5.32;;
30000;SDS011;16845;48.670;9.000;2023-04-06T10:55:27;5.63;;;4.53;;
30000;SDS011;16845;48.670;9.000;2023-04-06T10:57:57;7.13;;;5.28;;
30000;SDS011;16845;48.670;9.000;2023-04-06T11:00:25;7.80;;;5.90;;
30000;SDS011;16845;48.670;9.000;2023-04-06T11:03:12;7.25;;;5.53;;
30000;SDS011;16845;48.670;9.000;2023-04-06T11:05:43;5.15;;;4.65;;
30000;SDS011;16845;48.670;9.000;2023-04-06T11:08:21;6.68;;;5.40;;
30000;SDS011;16845;48.670;9.000;2023-04-06T11:10:50;7.80;;;4.90;;
30000;SDS011;16845;48.670;9.000;2023-04-06T11:13:19;8.07;;;5.00;;
30000;SDS011;16845;48.670;9.000;2023-04-06T11:15:47;7.90;;;5.07;;
30000;SDS011;16845;48.670;9.000;2023-04-06T11:18:17;8.82;;;5.30;;
30000;SDS011;16845;48.670;9.000;2023-04-06T11:20:47;8.55;;;5.63;;
30000;SDS011;16845;48.670;9.000;2023-04-06T11:23:22;7.53;;;6.07;;
30000;SDS011;16845;48.670;9.000;2023-04-06T11:25:51;9.05;;;5.63;;
30000;SDS011;16845;48.670;9.000;2023-04-06T11:28:20;6.00;;;5.38;;
30000;SDS011;16845;48.670;9.000;2023-04-06T11:30:48;10.23;;;5.90;;
30000;SDS011;16845;48.670;9.000;2023-04-06T11:33:20;6.30;;;5.20;;
30000;SDS011;16845;48.670;9.000;2023-04-06T11:35:48;5.82;;;5.20;;
30000;SDS011;16845;48.670;9.000;2023-04-06T11:38:17;9.73;;;6.45;;
30000;SDS011;16845;48.670;9.000;2023-04-06T11:40:46;9.20;;;5.70;;
30000;SDS011;16845;48.670;9.000;2023-04-06T11:43:14;6.10;;;5.50;;
30000;SDS011;16845;48.670;9.000;2023-04-06T11:45:43;9.05;;;6.05;;
30000;SDS011;16845;48.670;9.000;2023-04-06T11:48:18;7.40;;;5.85;;
30000;SDS011;16845;48.670;9.000;2023-04-06T11:50:54;8.10;;;6.05;;
30000;SDS011;16845;48.670;9.000;2023-04-06T11:53:23;9.27;;;6.20;;
30000;SDS011;16845;48.670;9.000;2023-04-06T11:55:52;6.70;;;6.03;;
30000;SDS011;16845;48.670;9.000;2023-04-06T11:58:19;11.43;;;6.85;;
30000;SDS011;16845;48.670;9.000;2023-04-06T12:00:49;9.23;;;7.20;;
30000;SDS011;16845;48.670;9.000;2023-04-06T12:03:17;9.57;;;7.22;;
30000;SDS011;16845;48.670;9.000;2023-04-06T12:05:45;9.70;;;6.80;;
30000;SDS011;16845;48.670;9.000;2023-04-06T12:08:13;10.23;;;6.43;;
30000;SDS011;16845;48.670;9.000;2023-04-06T12:10:41;8.48;;;6.05;;
30000;SDS011;16845;48.670;9.000;2023-04-06T12:13:09;6.88;;;6.18;;
30000;SDS011;16845;48.670;9.000;2023-04-06T12:15:37;8.93;;;6.32;;
30000;SDS011;16845;48.670;9.000;2023-04-06T12:18:06;7.22;;;6.30;;
30000;SDS011;16845;48.670;9.000;2023-04-06T12:20:34;7.00;;;6.30;;
30000;SDS011;16845;48.670;9.000;2023-04-06T12:23:02;9.60;;;5.85;;
30000;SDS011;16845;48.670;9.000;2023-04-06T12:25:30;10.82;;;6.07;;
30000;SDS011;16845;48.670;9.000;2023-04-06T12:27:58;8.20;;;6.13;;
30000;SDS011;16845;48.670;9.000;2023-04-06T12:30:26;8.32;;;6.07;;
30000;SDS011;16845;48.670;9.000;2023-04-06T12:32:54;8.35;;;6.90;;
30000;SDS011;16845;48.670;9.000;2023-04-06T12:35:24;8.82;;;6.55;;
30000;SDS011;16845;48.670;9.000;2023-04-06T12:37:52;6.80;;;6.10;;
30000;SDS011;16845;48.670;9.000;2023-04-06T12:40:20;9.48;;;6.88;;
30000;SDS011;16845;48.670;9.000;2023-04-06T12:42:48;7.75;;;6.07;;
30000;SDS011;16845;48.670;9.000;2023-04-06T12:45:16;7.03;;;5.57;;
30000;SDS011;16845;48.670;9.000;2023-04-06T12:47:44;7.40;;;5.70;;
30000;SDS011;16845;48.670;9.000;2023-04-06T12:50:12;6.70;;;5.10;;
30000;SDS011;16845;48.670;9.000;2023-04-06T12:52:41;8.05;;;5.82;;
30000;SDS011;16845;48.670;9.000;2023-04-06T12:55:09;6.35;;;5.40;;
30000;SDS011;16845;48.670;9.000;2023-04-06T12:57:37;7.28;;;5.38;;
30000;SDS011;16845;48.670;9.000;2023-04-06T13:00:06;8.18;;;5.53;;
30000;SDS011;16845;48.670;9.000;2023-04-06T13:02:35;6.55;;;5.28;;
30000;SDS011;16845;48.670;9.000;2023-04-06T13:05:04;5.05;;;4.50;;
30000;SDS011;16845;48.670;9.000;2023-04-06T13:07:32;6.50;;;4.55;;
30000;SDS011;16845;48.670;9.000;2023-04-06T13:10:01;9.90;;;4.95;;
30000;SDS011;16845;48.670;9.000;2023-04-06T13:12:29;6.57;;;4.80;;
30000;SDS011;16845;48.670;9.000;2023-04-06T13:14:57;7.00;;;5.22;;
30000;SDS011;16845;48.670;9.000;2023-04-06T13:17:26;5.85;;;5.22;;
30000;SDS011;16845;48.670;9.000;2023-04-06T13:19:55;9.68;;;5.50;;
30000;SDS011;16845;48.670;9.000;2023-04-06T13:22:23;7.90;;;5.28;;
30000;SDS011;16845;48.670;9.000;2023-04-06T13:24:51;5.63;;;4.90;;
30000;SDS011;16845;48.670;9.000;2023-04-06T13:27:20;6.05;;;5.18;;
30000;SDS011;16845;48.670;9.000;2023-04-06T13:29:48;7.65;;;4.97;;
30000;SDS011;16845;48.670;9.000;2023-04-06T13:32:16;7.75;;;5.50;;
30000;SDS011;16845;48.670;9.000;2023-04-06T13:34:43;8.52;;;5.45;;
30000;SDS011;16845;48.670;9.000;2023-04-06T13:37:12;8.75;;;6.30;;
30000;SDS011;16845;48.670;9.000;2023-04-06T13:39:40;8.68;;;5.75;;
30000;SDS011;16845;48.670;9.000;2023-04-06T13:42:08;12.38;;;5.35;;
30000;SDS011;16845;48.670;9.000;2023-04-06T13:44:37;6.95;;;5.00;;
30000;SDS011;16845;48.670;9.000;2023-04-06T13:47:05;7.53;;;5.93;;
30000;SDS011;16845;48.670;9.000;2023-04-06T13:49:33;7.63;;;6.10;;
30000;SDS011;16845;48.670;9.000;2023-04-06T13:52:02;7.05;;;5.60;;
30000;SDS011;16845;48.670;9.000;2023-04-06T13:54:30;8.10;;;5.72;;
30000;SDS011;16845;48.670;9.000;2023-04-06T13:56:58;6.93;;;5.22;;
30000;SDS011;16845;48.670;9.000;2023-04-06T13:59:31;7.78;;;5.10;;
30000;SDS011;16845;48.670;9.000;2023-04-06T14:02:01;7.40;;;5.15;;
30000;SDS011;16845;48.670;9.000;2023-04-06T14:04:30;6.35;;;5.70;;
30000;SDS011;16845;48.670;9.000;2023-04-06T14:06:58;9.63;;;6.57;;
30000;SDS011;16845;48.670;9.000;2023-04-06T14:09:26;9.80;;;6.82;;
30000;SDS011;16845;48.670;9.000;2023-04-06T14:11:55;9.40;;;6.93;;
30000;SDS011;16845;48.670;9.000;2023-04-06T14:14:23;8.90;;;6.32;;
30000;SDS011;16845;48.670;9.000;2023-04-06T14:16:52;9.20;;;6.65;;
30000;SDS011;16845;48.670;9.000;2023-04-06T14:19:22;10.05;;;6.43;;
30000;SDS011;16845;48.670;9.000;2023-04-06T14:21:50;8.20;;;6.43;;
30000;SDS011;16845;48.670;9.000;2023-04-06T14:24:17;10.90;;;6.05;;
30000;SDS011;16845;48.670;9.000;2023-04-06T14:26:45;9.18;;;5.97;;
30000;SDS011;16845;48.670;9.000;2023-04-06T14:29:13;11.30;;;6.53;;
30000;SDS011;16845;48.670;9.000;2023-04-06T14:31:42;7.40;;;6.13;;
30000;SDS011;16845;48.670;9.000;2023-04-06T14:34:10;10.13;;;6.20;;
30000;SDS011;16845;48.670;9.000;2023-04-06T14:36:39;9.50;;;6.43;;
30000;SDS011;16845;48.670;9.000;2023-04-06T14:39:07;12.50;;;6.55;;
30000;SDS011;16845;48.670;9.000;2023-04-06T14:41:36;8.40;;;6.15;;
30000;SDS011;16845;48.670;9.000;2023-04-06T14:44:04;10.65;;;7.03;;